Time;durP1;ratioP1;P1;durP2;ratioP2;P2;SDS_P1;SDS_P2;PMS_P1;PMS_P2;Temp;Humidity;BMP_temperature;BMP_pressure;BME280_temperature;BME280_humidity;BME280_pressure;Samples;Min_cycle;Max_cycle;Signal;HPM_P1;HPM_P2
2022/05/02 00:01:04;;;;;;;10.87;6.37;;;4.30;99.90;;;;;;4212674;28;20196;-72
2022/05/02 00:03:05;;;;;;;9.97;5.80;;;4.30;99.90;;;;;;4212738;28;20188;-72
2022/05/02 00:05:07;;;;;;;10.47;6.80;;;4.30;99.90;;;;;;4213643;28;20237;-72
2022/05/02 00:07:08;;;;;;;9.93;6.20;;;4.20;99.90;;;;;;4185193;28;20472;-73
2022/05/02 00:09:08;;;;;;;8.67;5.80;;;4.20;99.90;;;;;;4196119;28;20492;-72
2022/05/02 00:11:09;;;;;;;8.83;6.40;;;4.20;99.90;;;;;;4197119;28;20213;-73
2022/05/02 00:13:10;;;;;;;9.57;6.63;;;4.10;99.90;;;;;;4195892;28;20189;-73
2022/05/02 00:15:11;;;;;;;8.43;6.60;;;4.10;99.90;;;;;;4196776;28;20186;-72
2022/05/02 00:17:12;;;;;;;9.20;5.83;;;4.10;99.90;;;;;;4194859;28;20896;-72
2022/05/02 00:19:13;;;;;;;10.63;6.20;;;4.10;99.90;;;;;;4197014;28;20459;-72
2022/05/02 00:21:13;;;;;;;11.07;6.43;;;4.10;99.90;;;;;;4195373;28;20194;-73
2022/05/02 00:23:14;;;;;;;9.03;5.90;;;4.00;99.90;;;;;;4196788;28;20286;-72
2022/05/02 00:25:15;;;;;;;10.47;6.97;;;4.00;99.90;;;;;;4185235;28;20201;-72
2022/05/02 00:27:15;;;;;;;12.57;7.00;;;4.00;99.90;;;;;;4179917;28;20200;-72
2022/05/02 00:29:16;;;;;;;11.47;7.03;;;4.00;99.90;;;;;;4178911;28;20221;-74
2022/05/02 00:31:17;;;;;;;12.63;7.27;;;3.90;99.90;;;;;;4179993;28;20188;-73
2022/05/02 00:33:20;;;;;;;12.00;7.33;;;4.00;99.90;;;;;;4180307;28;20221;-72
2022/05/02 00:35:21;;;;;;;10.37;6.27;;;4.00;99.90;;;;;;4179651;28;20181;-72
2022/05/02 00:37:21;;;;;;;10.37;6.50;;;4.00;99.90;;;;;;4180052;28;20517;-72
2022/05/02 00:39:22;;;;;;;10.83;6.27;;;3.90;99.90;;;;;;4180176;28;20455;-73
2022/05/02 00:41:23;;;;;;;9.70;5.87;;;3.90;99.90;;;;;;4180043;28;20234;-72
2022/05/02 00:43:24;;;;;;;12.20;6.87;;;3.90;99.90;;;;;;4178812;28;20338;-72
2022/05/02 00:45:25;;;;;;;11.93;6.90;;;3.90;99.90;;;;;;4178169;28;20428;-73
2022/05/02 00:47:26;;;;;;;10.30;6.83;;;3.90;99.90;;;;;;4179970;28;20205;-72
2022/05/02 00:49:26;;;;;;;11.53;6.70;;;3.80;99.90;;;;;;4180058;28;20234;-72
2022/05/02 00:51:27;;;;;;;10.93;6.83;;;3.80;99.90;;;;;;4179870;28;20177;-72
2022/05/02 00:53:28;;;;;;;12.87;7.23;;;3.80;99.90;;;;;;4178562;28;20659;-72
2022/05/02 00:55:30;;;;;;;11.27;7.77;;;3.70;99.90;;;;;;4179335;28;20248;-72
2022/05/02 00:57:33;;;;;;;12.33;6.93;;;3.70;99.90;;;;;;4178379;28;20532;-72
2022/05/02 00:59:36;;;;;;;12.30;7.93;;;3.70;99.90;;;;;;4178569;28;20982;-72
2022/05/02 01:01:37;;;;;;;13.30;7.90;;;3.70;99.90;;;;;;4177908;28;20464;-72
2022/05/02 01:03:38;;;;;;;13.00;7.93;;;3.70;99.90;;;;;;4179509;28;20479;-72
2022/05/02 01:08:00;;;;;;;15.10;8.20;;;3.70;99.90;;;;;;4178507;28;20223;-72
2022/05/02 01:10:02;;;;;;;11.33;7.03;;;3.60;99.90;;;;;;4177816;28;20881;-72
2022/05/02 01:12:03;;;;;;;12.27;7.53;;;3.60;99.90;;;;;;4179149;28;20652;-72
2022/05/02 01:14:08;;;;;;;13.17;8.03;;;3.60;99.90;;;;;;4179349;28;20437;-73
2022/05/02 01:16:23;;;;;;;13.87;7.30;;;3.60;99.90;;;;;;4177274;28;20181;-72
2022/05/02 01:18:24;;;;;;;13.90;8.33;;;3.70;99.90;;;;;;4178996;28;20427;-72
2022/05/02 01:20:25;;;;;;;11.97;7.20;;;3.60;99.90;;;;;;4177690;28;20550;-72
2022/05/02 01:22:25;;;;;;;10.90;6.80;;;3.60;99.90;;;;;;4179258;28;20176;-73
2022/05/02 01:24:37;;;;;;;11.63;7.00;;;3.60;99.90;;;;;;4179158;28;20193;-72
2022/05/02 01:26:38;;;;;;;12.37;7.53;;;3.50;99.90;;;;;;4178567;28;20240;-72
2022/05/02 01:28:48;;;;;;;13.90;7.30;;;3.50;99.90;;;;;;4179221;28;20424;-72
2022/05/02 01:30:49;;;;;;;11.50;7.07;;;3.50;99.90;;;;;;4177809;28;20838;-72
2022/05/02 01:32:49;;;;;;;13.40;8.10;;;3.40;99.90;;;;;;4178976;28;20422;-72
2022/05/02 01:34:50;;;;;;;15.20;7.33;;;3.40;99.90;;;;;;4179025;28;20204;-72
2022/05/02 01:36:51;;;;;;;12.83;7.17;;;3.40;99.90;;;;;;4176990;28;20180;-72
2022/05/02 01:38:52;;;;;;;14.33;8.07;;;3.50;99.90;;;;;;4179009;28;20836;-72
2022/05/02 01:40:52;;;;;;;13.63;8.50;;;3.50;99.90;;;;;;4178558;28;20184;-72
2022/05/02 01:42:53;;;;;;;14.10;8.50;;;3.50;99.90;;;;;;4179441;28;20911;-72
2022/05/02 01:44:54;;;;;;;13.63;8.07;;;3.40;99.90;;;;;;4182257;28;20643;-72
2022/05/02 01:46:55;;;;;;;12.67;7.63;;;3.40;99.90;;;;;;4178760;28;20204;-73
2022/05/02 01:48:57;;;;;;;15.57;8.47;;;3.40;99.90;;;;;;4177777;28;20287;-72
2022/05/02 01:50:58;;;;;;;17.67;9.17;;;3.40;99.90;;;;;;4178101;28;20435;-71
2022/05/02 01:52:59;;;;;;;16.07;9.03;;;3.50;99.90;;;;;;4179078;28;20443;-72
2022/05/02 01:54:59;;;;;;;13.83;8.23;;;3.40;99.90;;;;;;4177835;28;20447;-72
2022/05/02 01:57:00;;;;;;;14.57;8.80;;;3.30;99.90;;;;;;4188284;28;20189;-72
2022/05/02 01:59:02;;;;;;;13.97;8.37;;;3.30;99.90;;;;;;4195646;28;20199;-73
2022/05/02 02:01:03;;;;;;;16.40;9.07;;;3.30;99.90;;;;;;4194363;28;20596;-73
2022/05/02 02:03:04;;;;;;;18.13;8.83;;;3.30;99.90;;;;;;4195448;28;20433;-73
2022/05/02 02:07:24;;;;;;;13.93;8.60;;;3.30;99.90;;;;;;4194277;28;20468;-72
2022/05/02 02:09:25;;;;;;;14.70;8.60;;;3.40;99.90;;;;;;4194283;28;20439;-73
2022/05/02 02:11:26;;;;;;;15.00;8.37;;;3.40;99.90;;;;;;4194025;28;20187;-72
2022/05/02 02:13:27;;;;;;;16.83;9.07;;;3.30;99.90;;;;;;4194551;28;20208;-72
2022/05/02 02:15:27;;;;;;;14.83;9.20;;;3.30;99.90;;;;;;4193195;28;20176;-72
2022/05/02 02:17:28;;;;;;;14.40;8.37;;;3.20;99.90;;;;;;4193793;28;20433;-72
2022/05/02 02:19:29;;;;;;;14.33;8.27;;;3.20;99.90;;;;;;4194942;28;20215;-72
2022/05/02 02:21:31;;;;;;;13.07;8.20;;;3.20;99.90;;;;;;4195012;28;20236;-72
2022/05/02 02:23:32;;;;;;;14.83;9.33;;;3.30;99.90;;;;;;4193465;28;20184;-72
2022/05/02 02:25:33;;;;;;;16.93;9.00;;;3.30;99.90;;;;;;4192908;28;20764;-72
2022/05/02 02:27:34;;;;;;;14.03;7.97;;;3.30;99.90;;;;;;4176838;28;20690;-72
2022/05/02 02:29:34;;;;;;;17.07;9.30;;;3.20;99.90;;;;;;4194734;28;20199;-71
2022/05/02 02:31:35;;;;;;;13.47;8.27;;;3.10;99.90;;;;;;4194823;28;20175;-72
2022/05/02 02:33:37;;;;;;;14.40;8.97;;;3.10;99.90;;;;;;4189027;28;20184;-72
2022/05/02 02:35:38;;;;;;;18.37;9.40;;;3.10;99.90;;;;;;4173910;28;20187;-71
2022/05/02 02:37:39;;;;;;;15.23;9.23;;;3.10;99.90;;;;;;4176770;28;20862;-72
2022/05/02 02:39:40;;;;;;;16.30;10.63;;;3.10;99.90;;;;;;4178484;28;20446;-73
2022/05/02 02:41:41;;;;;;;17.60;10.27;;;3.20;99.90;;;;;;4178211;28;20176;-71
2022/05/02 02:43:41;;;;;;;15.50;9.57;;;3.20;99.90;;;;;;4178279;28;20188;-72
2022/05/02 02:45:42;;;;;;;17.20;9.03;;;3.20;99.90;;;;;;4176253;28;20192;-72
2022/05/02 02:47:43;;;;;;;14.80;8.47;;;3.10;99.90;;;;;;4160312;28;20235;-71
2022/05/02 02:49:44;;;;;;;11.27;7.47;;;3.10;99.90;;;;;;4178302;28;20246;-71
2022/05/02 02:51:45;;;;;;;15.80;8.33;;;3.10;99.90;;;;;;4177326;28;20953;-71
2022/05/02 02:53:45;;;;;;;12.93;8.00;;;3.10;99.90;;;;;;4189820;28;20265;-72
2022/05/02 02:55:46;;;;;;;14.33;8.37;;;3.00;99.90;;;;;;4188585;28;20250;-72
2022/05/02 02:57:47;;;;;;;15.53;8.47;;;3.00;99.90;;;;;;4194662;28;20267;-72
2022/05/02 02:59:47;;;;;;;13.00;8.13;;;3.00;99.90;;;;;;4194663;28;20202;-72
2022/05/02 03:01:48;;;;;;;15.23;8.37;;;3.00;99.90;;;;;;4193335;28;20204;-72
2022/05/02 03:03:49;;;;;;;12.80;7.30;;;3.00;99.90;;;;;;4193256;28;20184;-72
2022/05/02 03:06:02;;;;;;;14.03;8.63;;;2.90;99.90;;;;;;4193847;28;20176;-71
2022/05/02 03:08:03;;;;;;;14.23;8.50;;;2.90;99.90;;;;;;4193518;28;20174;-72
2022/05/02 03:10:05;;;;;;;12.17;7.33;;;2.80;99.90;;;;;;4193056;28;20472;-71
2022/05/02 03:12:06;;;;;;;12.07;7.30;;;2.90;99.90;;;;;;4194959;28;21068;-72
2022/05/02 03:14:07;;;;;;;13.80;8.60;;;2.80;99.90;;;;;;4193401;28;20430;-71
2022/05/02 03:16:10;;;;;;;13.50;8.33;;;2.80;99.90;;;;;;4193833;28;20505;-72
2022/05/02 03:18:10;;;;;;;12.97;7.73;;;2.80;99.90;;;;;;4194549;28;20183;-71
2022/05/02 03:20:12;;;;;;;14.13;7.87;;;2.70;99.90;;;;;;4194323;28;20559;-72
2022/05/02 03:22:12;;;;;;;13.20;8.33;;;2.70;99.90;;;;;;4193407;28;20218;-72
2022/05/02 03:24:13;;;;;;;19.27;9.47;;;2.70;99.90;;;;;;4196022;28;20433;-72
2022/05/02 03:26:14;;;;;;;16.03;9.73;;;2.70;99.90;;;;;;4196636;28;20218;-72
2022/05/02 03:28:15;;;;;;;15.20;8.87;;;2.80;99.90;;;;;;4197506;28;20176;-71
2022/05/02 03:30:16;;;;;;;16.20;9.33;;;2.80;99.90;;;;;;4179370;28;20505;-72
2022/05/02 03:32:17;;;;;;;16.50;9.30;;;2.80;99.90;;;;;;4196289;28;20441;-71
2022/05/02 03:34:18;;;;;;;18.67;10.00;;;2.80;99.90;;;;;;4197463;28;20233;-72
2022/05/02 03:36:18;;;;;;;16.73;9.73;;;2.80;99.90;;;;;;4195135;28;20622;-72
2022/05/02 03:38:19;;;;;;;19.63;9.93;;;2.80;99.90;;;;;;4197271;28;20437;-71
2022/05/02 03:40:20;;;;;;;18.50;10.00;;;2.80;99.90;;;;;;4197352;28;20296;-72
2022/05/02 03:42:21;;;;;;;18.03;10.33;;;2.80;99.90;;;;;;4197134;28;20433;-72
2022/05/02 03:44:22;;;;;;;17.47;9.90;;;2.80;99.90;;;;;;4197667;28;20260;-71
2022/05/02 03:46:23;;;;;;;15.57;9.87;;;2.80;99.90;;;;;;4196533;28;20207;-72
2022/05/02 03:48:26;;;;;;;19.00;9.50;;;2.80;99.90;;;;;;4195954;28;20226;-71
2022/05/02 03:50:27;;;;;;;16.00;8.33;;;2.80;99.90;;;;;;4196050;28;21254;-71
2022/05/02 03:52:27;;;;;;;18.00;10.37;;;2.70;99.90;;;;;;4197445;28;20426;-71
2022/05/02 03:54:28;;;;;;;17.97;9.50;;;2.70;99.90;;;;;;4198539;28;20380;-71
2022/05/02 03:56:29;;;;;;;16.77;9.47;;;2.70;99.90;;;;;;4199404;28;20184;-71
2022/05/02 03:58:30;;;;;;;18.93;10.03;;;2.70;99.90;;;;;;4199392;28;20195;-71
2022/05/02 04:00:31;;;;;;;19.53;10.43;;;2.70;99.90;;;;;;4197864;28;20179;-72
2022/05/02 04:02:32;;;;;;;17.90;10.90;;;2.70;99.90;;;;;;4199656;28;21225;-71
2022/05/02 04:04:32;;;;;;;18.20;10.13;;;2.70;99.90;;;;;;4200547;28;20608;-71
2022/05/02 04:06:34;;;;;;;15.23;9.40;;;2.70;99.90;;;;;;4198524;28;20200;-72
2022/05/02 04:08:35;;;;;;;18.10;10.27;;;2.70;99.90;;;;;;4200581;28;20301;-73
2022/05/02 04:10:36;;;;;;;18.20;10.00;;;2.70;99.90;;;;;;4200334;28;20532;-72
2022/05/02 04:12:38;;;;;;;23.23;10.73;;;2.70;99.90;;;;;;4199415;28;20237;-71
2022/05/02 04:14:38;;;;;;;21.07;11.33;;;2.70;99.90;;;;;;4199070;28;20175;-72
2022/05/02 04:16:39;;;;;;;20.83;12.13;;;2.80;99.90;;;;;;4200078;28;20444;-72
2022/05/02 04:18:41;;;;;;;23.30;11.87;;;2.80;99.90;;;;;;4200107;28;20224;-71
2022/05/02 04:20:41;;;;;;;24.07;11.40;;;2.90;99.90;;;;;;4199074;28;20168;-72
2022/05/02 04:22:42;;;;;;;20.33;10.83;;;2.90;99.90;;;;;;4200301;28;20458;-71
2022/05/02 04:24:43;;;;;;;20.67;11.00;;;2.90;99.90;;;;;;4199111;28;20278;-71
2022/05/02 04:26:44;;;;;;;15.87;9.33;;;2.90;99.90;;;;;;4199738;28;20465;-71
2022/05/02 04:28:44;;;;;;;17.27;10.03;;;2.90;99.90;;;;;;4200575;28;20203;-71
2022/05/02 04:30:45;;;;;;;15.87;9.20;;;2.90;99.90;;;;;;4200133;28;20704;-71
2022/05/02 04:32:46;;;;;;;16.57;9.83;;;2.90;99.90;;;;;;4200269;28;20646;-71
2022/05/02 04:34:46;;;;;;;17.30;9.97;;;2.80;99.90;;;;;;4199995;28;20175;-71
2022/05/02 04:36:47;;;;;;;14.87;8.73;;;2.80;99.90;;;;;;4195719;28;20191;-72
2022/05/02 04:38:48;;;;;;;17.30;9.23;;;2.80;99.90;;;;;;4198984;28;20576;-71
2022/05/02 04:40:48;;;;;;;17.70;10.03;;;2.80;99.90;;;;;;4200036;28;20226;-71
2022/05/02 04:42:49;;;;;;;16.13;9.07;;;2.90;99.90;;;;;;4198814;28;20266;-70
2022/05/02 04:44:50;;;;;;;14.83;9.10;;;2.90;99.90;;;;;;4200115;28;20617;-71
2022/05/02 04:46:51;;;;;;;14.50;9.37;;;2.80;99.90;;;;;;4198129;28;20246;-71
2022/05/02 04:48:51;;;;;;;18.83;9.57;;;2.80;99.90;;;;;;4199811;28;20442;-71
2022/05/02 04:50:52;;;;;;;18.17;10.40;;;2.90;99.90;;;;;;4199913;28;20230;-72
2022/05/02 04:52:53;;;;;;;18.17;11.90;;;2.90;99.90;;;;;;4199968;28;20176;-71
2022/05/02 04:54:53;;;;;;;18.97;10.30;;;3.00;99.90;;;;;;4199647;28;20186;-71
2022/05/02 04:56:54;;;;;;;17.30;10.37;;;3.10;99.90;;;;;;4199318;28;20183;-71
2022/05/02 04:58:55;;;;;;;20.97;12.53;;;3.10;99.90;;;;;;4198737;28;20205;-71
2022/05/02 05:00:55;;;;;;;19.70;11.37;;;3.20;99.90;;;;;;4199839;28;20191;-71
2022/05/02 05:02:56;;;;;;;19.27;10.77;;;3.20;99.90;;;;;;4199637;28;20184;-70
2022/05/02 05:04:57;;;;;;;19.93;11.07;;;3.20;99.90;;;;;;4199637;28;20189;-72
2022/05/02 05:06:57;;;;;;;20.93;11.83;;;3.30;99.90;;;;;;4198729;28;20207;-71
2022/05/02 05:08:58;;;;;;;16.43;10.27;;;3.40;99.90;;;;;;4199611;28;20222;-71
2022/05/02 05:11:21;;;;;;;16.97;10.37;;;3.40;99.90;;;;;;4199423;28;20184;-71
2022/05/02 05:13:27;;;;;;;18.10;10.90;;;3.50;99.90;;;;;;4198369;28;20165;-71
2022/05/02 05:18:30;;;;;;;19.53;10.83;;;3.50;99.90;;;;;;4197996;28;20401;-73
2022/05/02 05:21:02;;;;;;;17.50;10.13;;;3.60;99.90;;;;;;4198251;28;20498;-71
2022/05/02 05:23:30;;;;;;;17.50;10.47;;;3.60;99.90;;;;;;4198029;28;20504;-71
2022/05/02 05:26:05;;;;;;;15.30;10.07;;;3.60;99.90;;;;;;4197477;28;20418;-71
2022/05/02 05:28:42;;;;;;;18.43;11.37;;;3.70;99.90;;;;;;4198357;28;20436;-71
2022/05/02 05:30:50;;;;;;;17.37;11.07;;;3.70;99.90;;;;;;4199249;28;20430;-71
2022/05/02 05:33:29;;;;;;;18.40;11.90;;;3.80;99.90;;;;;;4198053;28;20431;-71
2022/05/02 05:35:54;;;;;;;20.23;11.70;;;4.00;99.90;;;;;;4195448;28;20427;-71
2022/05/02 05:38:09;;;;;;;24.20;13.30;;;4.10;99.90;;;;;;4195879;28;21017;-71
2022/05/02 05:40:25;;;;;;;21.83;12.53;;;4.20;99.90;;;;;;4194299;28;20457;-70
2022/05/02 05:42:59;;;;;;;18.60;11.70;;;4.30;99.90;;;;;;4194416;28;20415;-71
2022/05/02 05:45:19;;;;;;;20.80;11.83;;;4.30;99.90;;;;;;4195557;28;20424;-71
2022/05/02 05:48:02;;;;;;;17.70;11.23;;;4.50;99.90;;;;;;4193447;28;20879;-72
2022/05/02 05:50:20;;;;;;;20.53;12.07;;;4.50;99.90;;;;;;4194088;28;20448;-71
2022/05/02 05:52:42;;;;;;;17.50;10.10;;;4.50;99.90;;;;;;4195395;28;20443;-71
2022/05/02 05:55:06;;;;;;;21.03;13.50;;;4.60;99.90;;;;;;4195423;28;20503;-71
2022/05/02 05:57:40;;;;;;;18.27;11.30;;;4.60;99.90;;;;;;4194915;28;20417;-71
2022/05/02 06:00:20;;;;;;;22.93;13.73;;;4.80;99.90;;;;;;4195256;28;20481;-71
2022/05/02 06:02:55;;;;;;;19.10;12.93;;;4.90;99.90;;;;;;4159913;28;20450;-71
2022/05/02 06:04:58;;;;;;;19.73;11.97;;;5.00;99.90;;;;;;4176427;28;20922;-73
2022/05/02 06:06:59;;;;;;;20.60;13.17;;;5.10;99.90;;;;;;4167260;28;20561;-70
2022/05/02 06:09:00;;;;;;;23.07;14.27;;;5.20;99.90;;;;;;4193398;28;20479;-71
2022/05/02 06:11:01;;;;;;;23.13;14.90;;;5.20;99.90;;;;;;4193753;28;20445;-72
2022/05/02 06:13:03;;;;;;;23.67;14.77;;;5.40;99.90;;;;;;4195196;28;20460;-71
2022/05/02 06:19:48;;;;;;;24.47;15.03;;;5.70;99.90;;;;;;4193871;28;20464;-71
2022/05/02 06:21:50;;;;;;;27.27;16.70;;;5.80;99.90;;;;;;4195057;28;20452;-70
2022/05/02 06:23:51;;;;;;;25.47;16.30;;;5.90;99.90;;;;;;4193842;28;20418;-71
2022/05/02 06:25:55;;;;;;;32.20;18.80;;;6.00;99.90;;;;;;4194350;28;20424;-71
2022/05/02 06:27:57;;;;;;;27.17;16.43;;;6.00;99.90;;;;;;4193607;28;20418;-73
2022/05/02 06:30:01;;;;;;;24.43;15.57;;;6.10;99.90;;;;;;4193801;28;20469;-71
2022/05/02 06:32:11;;;;;;;22.93;15.27;;;6.20;99.90;;;;;;4193706;28;20545;-71
2022/05/02 06:34:14;;;;;;;21.00;13.73;;;6.40;99.90;;;;;;4193463;28;20434;-72
2022/05/02 06:36:31;;;;;;;27.33;15.13;;;6.60;99.90;;;;;;4192779;28;20434;-71
2022/05/02 06:38:52;;;;;;;23.77;14.97;;;6.80;99.90;;;;;;4194781;28;20789;-71
2022/05/02 06:41:20;;;;;;;21.63;14.90;;;6.90;99.90;;;;;;4189735;28;20484;-70
2022/05/02 06:43:51;;;;;;;23.10;15.40;;;7.00;99.90;;;;;;4187249;28;20490;-72
2022/05/02 06:46:05;;;;;;;20.53;13.70;;;7.30;99.90;;;;;;4187060;28;20422;-73
2022/05/02 06:48:27;;;;;;;20.57;14.40;;;7.40;99.90;;;;;;4190323;28;20456;-71
2022/05/02 06:50:33;;;;;;;18.67;13.00;;;7.50;99.90;;;;;;4189336;28;21013;-73
2022/05/02 06:52:44;;;;;;;22.10;15.27;;;7.60;99.90;;;;;;4190066;28;20449;-72
2022/05/02 06:55:42;;;;;;;21.20;13.93;;;7.70;99.90;;;;;;4189839;28;20430;-73
2022/05/02 06:58:30;;;;;;;14.87;11.43;;;7.80;99.90;;;;;;4190542;28;20428;-72
2022/05/02 07:00:38;;;;;;;13.47;10.20;;;7.90;99.90;;;;;;4192928;28;20460;-72
2022/05/02 07:02:55;;;;;;;12.73;9.87;;;8.20;99.90;;;;;;4193144;28;20195;-71
2022/05/02 07:04:56;;;;;;;17.00;10.20;;;8.30;99.90;;;;;;4194143;28;20426;-72
2022/05/02 07:07:21;;;;;;;16.40;10.60;;;8.40;99.90;;;;;;4188780;28;20462;-73
2022/05/02 07:09:29;;;;;;;12.27;9.70;;;8.60;99.90;;;;;;4194997;28;20447;-73
2022/05/02 07:11:54;;;;;;;12.73;10.10;;;8.80;99.90;;;;;;4193034;28;20429;-73
2022/05/02 07:14:03;;;;;;;13.03;9.13;;;8.90;99.90;;;;;;4194116;28;20175;-73
2022/05/02 07:16:40;;;;;;;11.83;9.03;;;9.00;99.90;;;;;;4192150;28;20421;-72
2022/05/02 07:19:13;;;;;;;10.60;8.60;;;9.10;99.90;;;;;;4155102;28;20217;-72
2022/05/02 07:21:54;;;;;;;11.47;8.53;;;9.20;99.90;;;;;;4192873;28;20186;-73
2022/05/02 07:24:15;;;;;;;11.13;7.87;;;9.40;98.90;;;;;;4186598;28;20606;-73
2022/05/02 07:26:21;;;;;;;10.30;8.07;;;9.60;98.00;;;;;;4193008;28;20214;-73
2022/05/02 07:28:46;;;;;;;13.83;8.27;;;9.60;99.10;;;;;;4193017;28;20181;-73
2022/05/02 07:30:49;;;;;;;13.13;8.53;;;9.90;95.70;;;;;;4192482;28;20534;-73
2022/05/02 07:32:53;;;;;;;10.17;7.50;;;10.00;93.80;;;;;;4192885;28;20194;-72
2022/05/02 07:34:56;;;;;;;13.93;9.67;;;10.10;93.80;;;;;;4194420;28;20191;-73
2022/05/02 07:36:57;;;;;;;11.53;8.70;;;10.00;94.00;;;;;;4194992;28;20183;-72
2022/05/02 07:39:03;;;;;;;13.40;8.80;;;10.00;93.20;;;;;;4196766;28;20921;-73
2022/05/02 07:41:25;;;;;;;26.90;10.10;;;10.20;95.00;;;;;;4195580;28;20333;-72
2022/05/02 07:43:26;;;;;;;14.03;8.37;;;10.50;93.90;;;;;;4196209;28;20182;-72
2022/05/02 07:45:29;;;;;;;11.97;8.93;;;10.70;94.60;;;;;;4194709;28;20190;-72
2022/05/02 07:47:33;;;;;;;9.97;7.20;;;10.70;92.00;;;;;;4196637;28;20777;-72
2022/05/02 07:49:35;;;;;;;9.07;8.00;;;10.60;91.70;;;;;;4191028;28;20208;-72
2022/05/02 07:51:50;;;;;;;10.30;7.57;;;10.70;91.80;;;;;;4191467;28;20191;-73
2022/05/02 07:53:52;;;;;;;11.03;8.63;;;10.90;88.30;;;;;;4194812;28;20188;-72
2022/05/02 07:55:55;;;;;;;8.57;7.13;;;11.20;90.30;;;;;;4192238;28;20627;-73
2022/05/02 07:57:57;;;;;;;7.83;6.57;;;11.30;90.50;;;;;;4192539;28;20176;-74
2022/05/02 08:00:00;;;;;;;8.47;6.67;;;11.20;88.00;;;;;;4193847;28;20216;-73
2022/05/02 08:02:00;;;;;;;10.50;7.47;;;11.50;85.10;;;;;;4192100;28;20856;-72
2022/05/02 08:04:01;;;;;;;8.43;6.70;;;11.30;83.80;;;;;;4193897;28;20203;-72
2022/05/02 08:06:27;;;;;;;8.53;6.87;;;11.50;83.10;;;;;;4191817;28;21834;-71
2022/05/02 08:08:40;;;;;;;11.50;8.10;;;11.70;85.20;;;;;;4194554;28;20180;-71
2022/05/02 08:10:59;;;;;;;8.83;7.37;;;11.80;81.00;;;;;;4191470;28;20237;-72
2022/05/02 08:13:23;;;;;;;10.17;7.57;;;12.10;80.30;;;;;;4193565;28;20176;-73
2022/05/02 08:15:33;;;;;;;9.63;6.63;;;12.20;81.60;;;;;;4193042;28;20660;-73
2022/05/02 08:18:08;;;;;;;7.90;6.23;;;12.20;81.70;;;;;;4192467;28;20191;-71
2022/05/02 08:20:51;;;;;;;6.90;6.20;;;12.40;77.50;;;;;;4193417;28;20596;-73
2022/05/02 08:28:39;;;;;;;9.47;7.00;;;12.90;78.10;;;;;;4194748;28;20252;-72
2022/05/02 08:30:58;;;;;;;8.57;6.10;;;13.10;77.50;;;;;;4192218;28;20221;-72
2022/05/02 08:33:15;;;;;;;9.50;6.43;;;13.20;69.70;;;;;;4175581;28;20203;-72
2022/05/02 08:35:51;;;;;;;6.93;6.03;;;13.10;67.80;;;;;;4192674;28;20179;-73
2022/05/02 08:38:13;;;;;;;6.97;5.60;;;12.70;68.50;;;;;;4191091;28;20274;-71
2022/05/02 08:40:24;;;;;;;8.83;6.30;;;12.70;67.50;;;;;;4192975;28;20253;-71
2022/05/02 08:43:04;;;;;;;6.73;5.73;;;12.60;71.00;;;;;;4190295;28;20211;-70
2022/05/02 08:45:49;;;;;;;6.77;5.53;;;12.90;71.40;;;;;;4187719;28;20218;-70
2022/05/02 08:48:22;;;;;;;5.77;5.17;;;13.60;66.50;;;;;;4196972;28;20736;-71
2022/05/02 08:50:52;;;;;;;9.43;7.67;;;13.80;67.40;;;;;;4195419;28;20191;-70
2022/05/02 08:53:47;;;;;;;8.73;6.40;;;13.80;66.40;;;;;;4206682;28;20213;-72
2022/05/02 08:55:55;;;;;;;7.27;5.70;;;14.10;61.00;;;;;;4195940;28;20163;-73
2022/05/02 08:58:26;;;;;;;7.73;6.17;;;14.30;61.80;;;;;;4211611;28;20895;-72
2022/05/02 09:01:07;;;;;;;6.63;5.80;;;14.30;65.70;;;;;;4205650;28;20187;-73
2022/05/02 09:03:38;;;;;;;9.97;6.60;;;15.00;60.50;;;;;;4203717;28;20187;-72
2022/05/02 09:06:30;;;;;;;7.13;6.27;;;14.90;60.70;;;;;;4207857;28;20187;-73
2022/05/02 09:09:19;;;;;;;7.87;6.27;;;15.00;62.50;;;;;;4194054;28;20642;-74
2022/05/02 09:12:22;;;;;;;7.83;5.67;;;15.30;61.30;;;;;;4197768;28;20209;-74
2022/05/02 09:14:57;;;;;;;6.30;5.70;;;15.00;61.10;;;;;;4172760;28;20266;-72
2022/05/02 09:17:50;;;;;;;8.70;6.53;;;14.90;59.30;;;;;;4199552;28;20253;-72
2022/05/02 09:20:15;;;;;;;6.63;5.63;;;14.60;61.60;;;;;;4182582;28;20216;-72
2022/05/02 09:22:48;;;;;;;6.50;5.80;;;14.60;62.40;;;;;;4207696;28;20175;-73
2022/05/02 09:25:10;;;;;;;7.63;6.40;;;14.80;62.10;;;;;;4205565;28;20254;-72
2022/05/02 09:27:14;;;;;;;9.70;6.53;;;14.40;62.40;;;;;;4202807;28;20214;-72
2022/05/02 09:30:05;;;;;;;6.97;6.27;;;14.30;61.80;;;;;;4199421;28;20207;-72
2022/05/02 09:32:47;;;;;;;6.67;5.90;;;14.20;61.30;;;;;;4185536;28;20255;-74
2022/05/02 09:35:02;;;;;;;11.20;5.87;;;14.20;62.30;;;;;;4202392;28;20219;-72
2022/05/02 09:37:07;;;;;;;8.23;6.30;;;14.10;61.70;;;;;;4205966;28;20187;-72
2022/05/02 09:39:20;;;;;;;5.60;4.90;;;14.40;62.90;;;;;;4199196;28;20203;-72
2022/05/02 09:42:03;;;;;;;5.93;5.33;;;14.50;61.60;;;;;;4208814;28;20181;-73
2022/05/02 09:50:19;;;;;;;13.30;7.50;;;15.10;59.40;;;;;;4194929;28;20578;-71
2022/05/02 09:52:29;;;;;;;12.00;5.97;;;14.90;57.30;;;;;;4189176;28;20163;-73
2022/05/02 09:57:34;;;;;;;6.07;4.73;;;14.80;59.80;;;;;;4208765;28;20264;-71
2022/05/02 09:59:44;;;;;;;5.83;4.97;;;14.70;61.20;;;;;;4194501;28;20773;-73
2022/05/02 10:02:05;;;;;;;6.77;5.40;;;14.60;58.60;;;;;;4194146;28;20160;-72
2022/05/02 10:04:18;;;;;;;6.70;5.53;;;15.00;58.10;;;;;;4206878;28;20669;-72
2022/05/02 10:06:47;;;;;;;5.83;5.23;;;15.50;59.90;;;;;;4185766;28;20238;-71
2022/05/02 10:08:53;;;;;;;8.07;6.70;;;16.00;56.10;;;;;;4188406;28;20678;-72
2022/05/02 10:11:00;;;;;;;6.20;5.13;;;15.80;56.00;;;;;;4202981;28;20175;-70
2022/05/02 10:13:15;;;;;;;6.63;5.60;;;16.20;55.60;;;;;;4193284;28;20296;-71
2022/05/02 10:16:04;;;;;;;6.93;5.37;;;16.70;59.20;;;;;;4194438;28;20490;-72
2022/05/02 10:18:25;;;;;;;5.70;5.10;;;17.40;52.10;;;;;;4183976;28;20174;-71
2022/05/02 10:20:37;;;;;;;5.30;4.60;;;17.70;51.80;;;;;;4203913;28;20217;-72
2022/05/02 10:22:50;;;;;;;4.90;4.40;;;17.20;48.50;;;;;;4202550;28;20186;-74
2022/05/02 10:25:07;;;;;;;5.67;4.70;;;18.00;47.20;;;;;;4200292;28;20171;-69
2022/05/02 10:27:40;;;;;;;5.50;5.00;;;17.50;48.40;;;;;;4192740;28;20224;-70
2022/05/02 10:30:12;;;;;;;6.40;4.40;;;18.40;46.70;;;;;;4210864;28;20195;-70
2022/05/02 10:32:37;;;;;;;5.83;4.57;;;19.70;43.90;;;;;;4185487;28;20629;-70
2022/05/02 10:34:40;;;;;;;4.50;4.10;;;20.00;42.60;;;;;;4201294;28;20187;-70
2022/05/02 10:36:42;;;;;;;5.57;5.00;;;20.50;40.30;;;;;;4201856;28;20980;-70
2022/05/02 10:38:51;;;;;;;4.83;4.33;;;20.10;41.60;;;;;;4201083;28;20215;-72
2022/05/02 10:41:27;;;;;;;4.80;4.30;;;20.30;42.50;;;;;;4203161;28;20183;-69
2022/05/02 10:43:35;;;;;;;4.57;4.17;;;20.10;39.90;;;;;;4193313;28;20206;-69
2022/05/02 10:45:40;;;;;;;4.80;4.40;;;20.30;38.50;;;;;;4196888;28;20179;-70
2022/05/02 10:47:53;;;;;;;5.73;4.67;;;19.20;40.20;;;;;;4178965;28;20200;-71
2022/05/02 10:50:11;;;;;;;5.27;4.77;;;18.10;44.10;;;;;;4209198;28;20677;-69
2022/05/02 10:52:49;;;;;;;5.20;4.23;;;18.60;43.30;;;;;;4197479;28;20179;-70
2022/05/02 10:55:27;;;;;;;4.90;4.17;;;19.90;42.90;;;;;;4194199;28;20191;-71
2022/05/02 10:57:45;;;;;;;4.90;4.13;;;19.60;39.30;;;;;;4207779;28;20225;-71
2022/05/02 10:59:52;;;;;;;4.27;3.87;;;18.90;41.30;;;;;;4193530;28;20209;-70
2022/05/02 11:02:13;;;;;;;4.77;4.00;;;19.70;41.50;;;;;;4207858;28;20186;-68
2022/05/02 11:04:52;;;;;;;4.77;4.33;;;21.10;37.90;;;;;;4198654;28;20187;-69
2022/05/02 11:07:13;;;;;;;3.53;3.23;;;21.70;36.00;;;;;;4204365;28;20896;-69
2022/05/02 11:09:27;;;;;;;4.40;3.90;;;21.50;35.60;;;;;;4196472;28;20191;-71
2022/05/02 11:11:49;;;;;;;4.57;4.17;;;22.20;34.80;;;;;;4207680;28;20201;-72
2022/05/02 11:14:15;;;;;;;4.57;4.13;;;22.20;35.40;;;;;;4194030;28;20270;-73
2022/05/02 11:16:26;;;;;;;4.53;3.90;;;21.70;33.40;;;;;;4205274;28;20180;-73
2022/05/02 11:21:46;;;;;;;4.40;4.00;;;23.20;33.40;;;;;;4194375;28;20257;-73
2022/05/02 11:24:23;;;;;;;4.73;4.23;;;22.70;32.10;;;;;;4183069;28;20171;-68
2022/05/02 11:26:45;;;;;;;4.13;3.73;;;22.70;31.00;;;;;;4199606;28;20214;-69
2022/05/02 11:29:24;;;;;;;4.40;4.00;;;23.50;31.80;;;;;;4201875;28;20262;-69
2022/05/02 11:31:40;;;;;;;3.90;3.60;;;21.90;32.50;;;;;;4208662;28;20547;-69
2022/05/02 11:34:17;;;;;;;4.03;3.63;;;21.50;32.30;;;;;;4176338;28;20168;-73
2022/05/02 11:36:26;;;;;;;4.57;4.00;;;20.80;34.70;;;;;;4204892;28;20250;-71
2022/05/02 11:38:54;;;;;;;3.70;3.30;;;19.80;37.60;;;;;;4199396;28;20256;-71
2022/05/02 11:41:15;;;;;;;4.03;3.30;;;19.80;38.40;;;;;;4200133;28;20845;-72
2022/05/02 11:43:22;;;;;;;3.67;3.37;;;21.20;36.80;;;;;;4193075;28;20187;-71
2022/05/02 11:46:05;;;;;;;4.17;2.97;;;22.60;33.30;;;;;;4192944;28;20179;-71
2022/05/02 11:48:37;;;;;;;4.40;3.20;;;23.20;32.00;;;;;;4168654;28;20818;-72